Time;durP1;ratioP1;P1;durP2;ratioP2;P2;SDS_P1;SDS_P2;PMS_P1;PMS_P2;Temp;Humidity;BMP_temperature;BMP_pressure;BME280_temperature;BME280_humidity;BME280_pressure;Samples;Min_cycle;Max_cycle;Signal;HPM_P1;HPM_P2
2022/06/05 00:09:33;;;;;;;8.25;3.25;;;11.40;99.90;;;;;;6269532;22;20022;-93
2022/06/05 00:12:14;;;;;;;6.63;3.33;;;11.40;99.90;;;;;;6348551;22;20022;-96
2022/06/05 00:14:41;;;;;;;6.68;3.63;;;11.40;99.90;;;;;;6348945;22;20018;-96
2022/06/05 00:17:19;;;;;;;6.72;3.42;;;11.40;99.90;;;;;;6323363;22;20014;-92
2022/06/05 00:23:50;;;;;;;7.40;3.80;;;11.40;99.90;;;;;;6403819;22;20025;-96
2022/06/05 00:26:31;;;;;;;8.10;3.00;;;11.40;99.90;;;;;;6351285;22;20025;-96
2022/06/05 00:29:24;;;;;;;6.72;3.38;;;11.40;99.90;;;;;;6348963;22;20018;-92
2022/06/05 00:32:24;;;;;;;7.05;3.28;;;11.40;99.90;;;;;;6348573;22;20021;-93
2022/06/05 00:34:50;;;;;;;7.15;3.97;;;11.40;99.90;;;;;;6348550;22;20092;-92
2022/06/05 00:37:29;;;;;;;7.20;3.20;;;11.40;99.90;;;;;;6348950;22;20041;-96
2022/06/05 00:40:26;;;;;;;6.30;3.30;;;11.40;99.90;;;;;;6349934;22;20401;-93
2022/06/05 00:42:52;;;;;;;7.50;3.43;;;11.40;99.90;;;;;;6349061;22;20043;-95
2022/06/05 00:45:19;;;;;;;6.72;3.50;;;11.40;99.90;;;;;;6348534;22;20022;-93
2022/06/05 00:47:46;;;;;;;6.57;2.95;;;11.40;99.90;;;;;;6348796;22;20085;-93
2022/06/05 00:50:24;;;;;;;8.32;3.63;;;11.40;99.90;;;;;;6348557;22;20018;-93
2022/06/05 00:52:55;;;;;;;8.40;3.17;;;11.40;99.90;;;;;;6348622;22;20014;-93
2022/06/05 00:55:23;;;;;;;7.70;3.35;;;11.40;99.90;;;;;;6348710;22;20014;-93
2022/06/05 00:57:49;;;;;;;6.43;3.00;;;11.40;99.90;;;;;;6348810;22;20045;-95
2022/06/05 01:00:27;;;;;;;7.75;3.08;;;11.40;99.90;;;;;;6348554;22;20009;-92
2022/06/05 01:02:54;;;;;;;6.57;3.42;;;11.40;99.90;;;;;;6348317;22;20025;-95
2022/06/05 01:05:23;;;;;;;6.35;3.00;;;11.40;99.90;;;;;;6348894;22;20029;-93
2022/06/05 01:07:49;;;;;;;9.60;3.45;;;11.40;99.90;;;;;;6349120;22;20018;-95
2022/06/05 01:10:17;;;;;;;6.18;3.15;;;11.40;99.90;;;;;;6348936;22;20498;-96
2022/06/05 01:13:26;;;;;;;6.07;2.95;;;11.40;99.90;;;;;;6348202;22;20021;-94
2022/06/05 01:16:07;;;;;;;5.88;2.90;;;11.40;99.90;;;;;;6267117;22;20093;-94
2022/06/05 01:18:44;;;;;;;5.82;2.85;;;11.40;99.90;;;;;;6381825;22;20115;-94
2022/06/05 01:21:42;;;;;;;;;;;11.30;99.90;;;;;;6382431;22;20051;-94
2022/06/05 01:24:14;;;;;;;7.05;3.05;;;11.30;99.90;;;;;;6381685;22;20338;-93
2022/06/05 01:27:02;;;;;;;7.45;2.97;;;11.30;99.90;;;;;;6411849;22;20017;-96
2022/06/05 01:29:41;;;;;;;7.15;3.10;;;11.30;99.90;;;;;;6383063;22;20069;-94
2022/06/05 01:32:11;;;;;;;5.38;2.70;;;11.30;99.90;;;;;;6395889;22;20057;-94
2022/06/05 01:34:57;;;;;;;5.32;2.85;;;11.30;99.90;;;;;;6404859;22;20016;-93
2022/06/05 01:37:52;;;;;;;6.32;3.10;;;11.40;99.90;;;;;;6386758;22;20013;-95
2022/06/05 01:40:24;;;;;;;6.32;2.75;;;11.40;99.90;;;;;;6382052;22;20009;-94
2022/06/05 01:42:57;;;;;;;7.03;2.97;;;11.40;99.90;;;;;;6382098;22;20070;-94
2022/06/05 01:45:44;;;;;;;5.30;2.80;;;11.40;99.90;;;;;;6382308;22;20510;-93
2022/06/05 01:48:17;;;;;;;5.80;3.13;;;11.40;99.90;;;;;;6380762;22;20021;-94
2022/06/05 01:50:46;;;;;;;6.05;2.65;;;11.40;99.90;;;;;;6382248;22;20442;-94
2022/06/05 01:53:29;;;;;;;5.75;2.53;;;11.50;99.90;;;;;;6381466;22;20017;-92
2022/06/05 01:56:07;;;;;;;5.82;2.88;;;11.40;99.90;;;;;;6381868;22;20146;-93
2022/06/05 01:58:39;;;;;;;7.32;2.90;;;11.50;99.90;;;;;;6381260;22;20013;-95
2022/06/05 02:01:11;;;;;;;7.00;2.72;;;11.50;99.90;;;;;;6381745;22;20334;-95
2022/06/05 02:03:42;;;;;;;8.23;3.10;;;11.50;99.90;;;;;;6381096;22;20006;-93
2022/06/05 02:06:13;;;;;;;8.98;3.10;;;11.50;99.90;;;;;;6381441;22;20017;-95
2022/06/05 02:09:08;;;;;;;7.15;3.28;;;11.50;99.90;;;;;;6381243;22;20020;-95
2022/06/05 02:11:34;;;;;;;6.38;3.22;;;11.50;99.90;;;;;;6380199;22;20044;-96
2022/06/05 02:14:05;;;;;;;8.02;3.53;;;11.50;99.90;;;;;;6381047;22;20450;-92
2022/06/05 02:16:32;;;;;;;7.70;3.35;;;11.50;99.90;;;;;;6381808;22;20013;-93
2022/06/05 02:19:01;;;;;;;6.90;3.08;;;11.60;99.90;;;;;;6381473;22;20462;-94
2022/06/05 02:21:27;;;;;;;6.10;3.20;;;11.60;99.90;;;;;;6381248;22;20010;-95
2022/06/05 02:23:57;;;;;;;6.25;3.17;;;11.60;99.90;;;;;;6381751;22;20042;-94
2022/06/05 02:26:22;;;;;;;8.35;3.22;;;11.60;99.90;;;;;;6381692;22;20024;-95
2022/06/05 02:28:48;;;;;;;7.80;3.60;;;11.60;99.90;;;;;;6381415;22;20014;-94
2022/06/05 02:31:45;;;;;;;6.83;3.07;;;11.60;99.90;;;;;;6381440;22;20025;-95
2022/06/05 02:34:19;;;;;;;7.38;3.28;;;11.60;99.90;;;;;;6356541;22;20062;-93
2022/06/05 02:37:08;;;;;;;6.93;2.83;;;11.60;99.90;;;;;;6381123;22;20084;-93
2022/06/05 02:39:50;;;;;;;6.03;2.95;;;11.60;99.90;;;;;;6381091;22;20018;-95
2022/06/05 02:42:27;;;;;;;7.35;3.28;;;11.60;99.90;;;;;;6380970;22;20092;-93
2022/06/05 02:44:57;;;;;;;5.72;2.85;;;11.60;99.90;;;;;;6381040;22;20018;-95
2022/06/05 02:47:39;;;;;;;7.72;3.60;;;11.60;99.90;;;;;;6381047;22;20013;-95
2022/06/05 02:50:26;;;;;;;7.53;3.00;;;11.60;99.90;;;;;;6380796;22;20065;-94
2022/06/05 02:53:01;;;;;;;7.30;3.33;;;11.60;99.90;;;;;;6380488;22;20017;-96
2022/06/05 02:55:27;;;;;;;9.27;3.33;;;11.60;99.90;;;;;;6381085;22;20020;-96
2022/06/05 02:57:53;;;;;;;6.57;3.10;;;11.60;99.90;;;;;;6381113;22;20017;-94
2022/06/05 03:00:22;;;;;;;9.57;3.67;;;11.60;99.90;;;;;;6379704;22;20300;-94
2022/06/05 03:05:33;;;;;;;7.57;3.28;;;11.70;99.90;;;;;;6407487;22;20017;-92
2022/06/05 03:07:59;;;;;;;6.93;3.42;;;11.60;99.90;;;;;;6380846;22;20024;-93
2022/06/05 03:10:25;;;;;;;8.65;4.00;;;11.60;99.90;;;;;;6380365;22;20045;-93
2022/06/05 03:12:51;;;;;;;7.85;3.75;;;11.70;99.90;;;;;;6380420;22;20022;-95
2022/06/05 03:15:17;;;;;;;9.57;4.10;;;11.60;99.90;;;;;;6380926;22;20081;-95
2022/06/05 03:17:43;;;;;;;10.13;3.70;;;11.60;99.90;;;;;;6381027;22;20109;-96
2022/06/05 03:20:10;;;;;;;6.93;3.67;;;11.70;99.90;;;;;;6380636;22;20472;-96
2022/06/05 03:23:01;;;;;;;7.18;3.90;;;11.70;99.90;;;;;;6380682;22;20017;-96
2022/06/05 03:25:27;;;;;;;7.50;3.60;;;11.70;99.90;;;;;;6380852;22;20017;-96
2022/06/05 03:27:53;;;;;;;7.32;3.72;;;11.80;99.90;;;;;;6381448;22;20024;-94
2022/06/05 03:30:19;;;;;;;7.93;3.33;;;11.70;99.90;;;;;;6382419;22;20022;-95
2022/06/05 03:32:46;;;;;;;6.93;3.28;;;11.70;99.90;;;;;;6394487;22;20030;-91
2022/06/05 03:35:13;;;;;;;7.53;3.50;;;11.70;99.90;;;;;;6405367;22;20013;-93
2022/06/05 03:37:39;;;;;;;;;;;11.80;99.90;;;;;;6387552;22;20017;-95
2022/06/05 03:40:13;;;;;;;8.35;3.95;;;11.80;99.90;;;;;;6380608;22;19965;-92
2022/06/05 03:42:39;;;;;;;9.73;3.65;;;11.80;99.90;;;;;;6380460;22;20021;-94
2022/06/05 03:45:05;;;;;;;7.70;3.43;;;11.80;99.90;;;;;;6380800;22;20014;-94
2022/06/05 03:47:31;;;;;;;8.68;3.53;;;11.90;99.90;;;;;;6381000;22;20009;-96
2022/06/05 03:49:56;;;;;;;6.57;3.33;;;11.90;99.90;;;;;;6380822;22;20338;-96
2022/06/05 03:52:22;;;;;;;9.50;3.90;;;11.90;99.90;;;;;;6380271;22;20010;-96
2022/06/05 03:54:48;;;;;;;7.17;3.50;;;11.90;99.90;;;;;;6380475;22;20025;-95
2022/06/05 03:57:13;;;;;;;7.07;3.53;;;11.90;99.90;;;;;;6380580;22;20009;-93
2022/06/05 03:59:39;;;;;;;8.13;3.87;;;11.90;99.90;;;;;;6380170;22;20021;-95
2022/06/05 04:02:06;;;;;;;9.60;4.40;;;11.90;99.90;;;;;;6380248;22;20013;-92
2022/06/05 04:04:32;;;;;;;9.52;3.67;;;12.00;99.90;;;;;;6380108;22;20010;-96
2022/06/05 04:06:58;;;;;;;9.18;3.90;;;12.00;99.90;;;;;;6380484;22;20013;-95
2022/06/05 04:09:24;;;;;;;7.53;4.07;;;12.00;99.90;;;;;;6380161;22;20161;-94
2022/06/05 04:11:50;;;;;;;8.45;3.97;;;12.00;99.90;;;;;;6380005;22;20010;-94
2022/06/05 04:14:16;;;;;;;7.97;3.70;;;12.00;99.90;;;;;;6380335;22;20020;-94
2022/06/05 04:16:42;;;;;;;7.67;4.10;;;12.10;99.90;;;;;;6380226;22;20013;-94
2022/06/05 04:19:08;;;;;;;8.70;3.45;;;12.10;99.90;;;;;;6380414;22;20013;-91
2022/06/05 04:21:36;;;;;;;6.97;3.30;;;12.10;99.90;;;;;;6406873;22;20021;-95
2022/06/05 04:24:02;;;;;;;9.18;4.15;;;12.10;99.90;;;;;;6380503;22;20009;-93
2022/06/05 04:26:32;;;;;;;7.30;3.40;;;12.20;99.90;;;;;;6380223;22;20013;-94
2022/06/05 04:28:57;;;;;;;7.60;3.97;;;12.20;99.90;;;;;;6406939;22;20016;-95
2022/06/05 04:31:28;;;;;;;8.77;4.47;;;12.20;99.90;;;;;;6381457;22;20053;-93
2022/06/05 04:33:58;;;;;;;9.07;3.72;;;12.20;99.90;;;;;;6381026;22;20521;-94
2022/06/05 04:36:24;;;;;;;7.95;3.67;;;12.30;99.90;;;;;;6382335;22;20020;-94
2022/06/05 04:38:50;;;;;;;10.27;4.75;;;12.30;99.90;;;;;;6381591;22;20374;-96
2022/06/05 04:41:18;;;;;;;8.45;4.07;;;12.40;99.90;;;;;;6383605;22;20118;-96
2022/06/05 04:43:44;;;;;;;8.20;4.20;;;12.40;99.90;;;;;;6410091;22;20014;-93
2022/06/05 04:46:10;;;;;;;9.30;4.03;;;12.40;99.90;;;;;;6380645;22;20013;-94
2022/06/05 04:48:36;;;;;;;8.32;4.07;;;12.50;99.90;;;;;;6380331;22;20090;-95
2022/06/05 04:51:10;;;;;;;9.70;4.27;;;12.50;99.90;;;;;;6382354;22;20092;-92
2022/06/05 04:53:36;;;;;;;10.38;4.15;;;12.60;99.90;;;;;;6409051;22;20318;-92
2022/06/05 04:56:06;;;;;;;10.32;5.15;;;12.70;99.90;;;;;;6382343;22;20086;-92
2022/06/05 04:58:32;;;;;;;9.63;4.22;;;12.80;99.90;;;;;;6382107;22;20024;-92
2022/06/05 05:00:58;;;;;;;9.30;4.45;;;12.80;99.90;;;;;;6381923;22;20375;-94
2022/06/05 05:03:23;;;;;;;8.33;4.53;;;12.90;99.90;;;;;;6381924;22;20017;-94
2022/06/05 05:05:49;;;;;;;10.33;4.63;;;13.00;99.90;;;;;;6381960;22;20239;-94
2022/06/05 05:08:15;;;;;;;8.88;4.45;;;13.00;99.90;;;;;;6382159;22;20082;-94
2022/06/05 05:10:42;;;;;;;10.43;4.97;;;13.00;99.90;;;;;;6382031;22;20020;-93
2022/06/05 05:13:08;;;;;;;9.73;4.50;;;13.10;99.90;;;;;;6382190;22;20081;-92
2022/06/05 05:15:34;;;;;;;9.25;4.40;;;13.10;99.90;;;;;;6382071;22;20450;-94
2022/06/05 05:18:00;;;;;;;8.30;4.63;;;13.10;99.90;;;;;;6382093;22;20525;-91
2022/06/05 05:20:26;;;;;;;9.93;5.18;;;13.20;99.90;;;;;;6382305;22;20044;-90
2022/06/05 05:22:51;;;;;;;9.93;4.80;;;13.20;99.90;;;;;;6408864;22;20092;-91
2022/06/05 05:25:17;;;;;;;11.37;5.20;;;13.10;99.90;;;;;;6381946;22;20047;-91
2022/06/05 05:27:43;;;;;;;8.93;4.67;;;13.20;99.90;;;;;;6382103;22;20141;-91
2022/06/05 05:30:10;;;;;;;11.40;5.03;;;13.20;99.90;;;;;;6385685;22;20565;-92
2022/06/05 05:32:36;;;;;;;;;;;13.20;99.90;;;;;;6411116;22;20025;-88
2022/06/05 05:35:01;;;;;;;10.38;4.97;;;13.20;99.90;;;;;;6391516;22;19948;-92
2022/06/05 05:37:27;;;;;;;10.50;5.00;;;13.30;99.90;;;;;;6382166;22;20010;-89
2022/06/05 05:42:37;;;;;;;9.88;4.95;;;13.50;99.90;;;;;;6408130;22;20043;-94
2022/06/05 05:45:05;;;;;;;10.13;5.03;;;13.70;99.90;;;;;;6381613;22;20045;-90
2022/06/05 05:47:32;;;;;;;9.05;4.18;;;13.80;99.90;;;;;;6381800;22;20020;-92
2022/06/05 05:50:02;;;;;;;12.02;5.20;;;14.00;99.90;;;;;;6381711;22;20070;-90
2022/06/05 05:52:29;;;;;;;10.57;5.03;;;14.10;99.90;;;;;;6381404;22;20009;-91
2022/06/05 05:54:55;;;;;;;9.57;5.20;;;14.20;99.90;;;;;;6381416;22;20012;-91
2022/06/05 05:57:21;;;;;;;8.13;4.57;;;14.30;99.90;;;;;;6381391;22;20048;-92
2022/06/05 05:59:48;;;;;;;10.32;4.63;;;14.40;99.90;;;;;;6381313;22;20138;-90
2022/06/05 06:02:18;;;;;;;9.75;4.55;;;14.50;99.90;;;;;;6381368;22;20342;-91
2022/06/05 06:04:45;;;;;;;10.40;4.82;;;14.70;99.90;;;;;;6381310;22;20021;-91
2022/06/05 06:07:12;;;;;;;9.10;4.90;;;14.70;99.90;;;;;;6381339;22;20045;-92
2022/06/05 06:09:37;;;;;;;;;;;14.80;99.90;;;;;;6381594;22;20018;-92
2022/06/05 06:12:04;;;;;;;8.70;4.40;;;14.90;99.90;;;;;;6407732;22;19962;-91
2022/06/05 06:14:29;;;;;;;11.45;4.88;;;14.90;99.90;;;;;;6381383;22;20013;-91
2022/06/05 06:16:55;;;;;;;11.40;4.50;;;14.90;99.90;;;;;;6381360;22;20017;-90
2022/06/05 06:19:20;;;;;;;11.63;4.87;;;14.90;99.90;;;;;;6381437;22;20037;-94
2022/06/05 06:21:46;;;;;;;9.53;4.00;;;15.00;99.90;;;;;;6381529;22;20014;-93
2022/06/05 06:24:13;;;;;;;9.93;4.53;;;15.00;99.90;;;;;;6381121;22;20017;-93
2022/06/05 06:26:40;;;;;;;8.43;4.43;;;15.00;99.90;;;;;;6381391;22;20401;-93
2022/06/05 06:29:06;;;;;;;8.30;3.95;;;15.10;99.90;;;;;;6381386;22;20020;-93
2022/06/05 06:31:33;;;;;;;8.85;4.50;;;15.10;99.90;;;;;;6381125;22;20017;-91
2022/06/05 06:34:01;;;;;;;9.35;4.45;;;15.10;99.90;;;;;;6381181;22;20022;-92
2022/06/05 06:36:27;;;;;;;8.82;4.32;;;15.10;99.90;;;;;;6407789;22;20028;-91
2022/06/05 06:38:53;;;;;;;9.93;4.28;;;15.10;99.90;;;;;;6381291;22;20066;-91
2022/06/05 06:41:20;;;;;;;8.48;4.82;;;15.10;99.90;;;;;;6380960;22;20017;-90
2022/06/05 06:43:46;;;;;;;;;;;15.10;99.90;;;;;;6381653;22;20518;-91
2022/06/05 06:46:13;;;;;;;8.02;3.95;;;15.10;99.90;;;;;;6381022;22;19914;-92
2022/06/05 06:48:39;;;;;;;8.05;3.92;;;15.20;99.90;;;;;;6407721;22;20058;-91
2022/06/05 06:51:05;;;;;;;10.55;4.97;;;15.20;99.90;;;;;;6381060;22;20058;-93
2022/06/05 06:53:33;;;;;;;8.82;4.78;;;15.30;99.90;;;;;;6407375;22;20018;-92
2022/06/05 06:55:59;;;;;;;9.32;5.00;;;15.30;99.90;;;;;;6382403;22;20013;-91
2022/06/05 06:58:25;;;;;;;10.25;4.70;;;15.40;99.90;;;;;;6380859;22;20380;-90
2022/06/05 07:00:51;;;;;;;10.85;4.30;;;15.50;99.90;;;;;;6381125;22;20020;-91
2022/06/05 07:03:17;;;;;;;8.88;4.03;;;15.50;99.90;;;;;;6381226;22;20057;-92
2022/06/05 07:05:43;;;;;;;7.15;4.05;;;15.60;99.90;;;;;;6380867;22;20100;-92
2022/06/05 07:08:09;;;;;;;7.00;3.83;;;15.70;99.90;;;;;;6380819;22;20017;-91
2022/06/05 07:10:37;;;;;;;8.07;3.60;;;15.80;99.90;;;;;;6380562;22;20013;-91
2022/06/05 07:13:03;;;;;;;8.57;4.35;;;15.80;99.90;;;;;;6380883;22;20017;-92
2022/06/05 07:15:34;;;;;;;8.45;4.13;;;15.90;99.90;;;;;;6381142;22;20013;-94
2022/06/05 07:18:07;;;;;;;10.23;5.05;;;15.90;99.90;;;;;;6407397;22;20013;-94
2022/06/05 07:20:39;;;;;;;7.40;4.05;;;16.10;99.90;;;;;;6382827;22;20013;-90
2022/06/05 07:23:05;;;;;;;9.13;4.47;;;16.10;99.90;;;;;;6381703;22;20014;-95
2022/06/05 07:25:33;;;;;;;9.68;4.00;;;16.20;99.90;;;;;;6380831;22;20092;-92
2022/06/05 07:27:58;;;;;;;8.75;4.38;;;16.30;99.90;;;;;;6382674;22;20014;-92
2022/06/05 07:30:25;;;;;;;7.65;4.05;;;16.40;99.90;;;;;;6400720;22;20065;-92
2022/06/05 07:32:51;;;;;;;8.77;4.35;;;16.50;99.90;;;;;;6399783;22;20023;-93
2022/06/05 07:35:17;;;;;;;;;;;16.60;99.90;;;;;;6383830;22;20049;-93
2022/06/05 07:37:43;;;;;;;6.85;4.00;;;16.70;99.90;;;;;;6380282;22;19914;-92
2022/06/05 07:40:10;;;;;;;9.70;4.25;;;16.70;99.90;;;;;;6379217;22;20021;-94
2022/06/05 07:42:37;;;;;;;8.55;4.10;;;16.70;99.90;;;;;;6379825;22;20013;-93
2022/06/05 07:45:04;;;;;;;7.28;4.10;;;16.80;99.90;;;;;;6380849;22;20032;-94
2022/06/05 07:47:30;;;;;;;7.68;4.13;;;16.80;99.90;;;;;;6380673;22;20088;-92
2022/06/05 07:49:58;;;;;;;9.05;4.18;;;16.80;99.90;;;;;;6380123;22;20045;-93
2022/06/05 07:55:10;;;;;;;7.13;3.38;;;16.80;99.90;;;;;;6407028;22;20024;-92
2022/06/05 07:57:37;;;;;;;8.00;4.18;;;16.90;99.90;;;;;;6406958;22;20046;-91
2022/06/05 08:00:05;;;;;;;;;;;16.90;99.90;;;;;;6380786;22;20010;-93
2022/06/05 08:02:31;;;;;;;7.63;4.63;;;17.00;99.90;;;;;;6380033;22;19909;-91
2022/06/05 08:04:57;;;;;;;7.95;3.90;;;17.10;99.90;;;;;;6380342;22;20048;-94
2022/06/05 08:07:29;;;;;;;8.35;4.43;;;17.10;99.90;;;;;;6380025;22;20017;-93
2022/06/05 08:09:55;;;;;;;7.78;4.13;;;17.20;99.90;;;;;;6380038;22;20434;-92
2022/06/05 08:12:23;;;;;;;7.63;3.50;;;17.20;99.90;;;;;;6380128;22;20033;-92
2022/06/05 08:14:50;;;;;;;8.25;4.53;;;17.30;99.90;;;;;;6380561;22;20458;-92
2022/06/05 08:17:23;;;;;;;7.57;3.72;;;17.30;99.90;;;;;;6379208;22;20384;-92
2022/06/05 08:19:49;;;;;;;7.57;3.83;;;17.40;99.90;;;;;;6380273;22;20014;-95
2022/06/05 08:22:16;;;;;;;7.28;3.53;;;17.40;99.90;;;;;;6380205;22;20032;-95
2022/06/05 08:24:42;;;;;;;7.15;4.03;;;17.50;99.90;;;;;;6382390;22;20009;-92
2022/06/05 08:27:11;;;;;;;7.40;4.47;;;17.60;99.90;;;;;;6382528;22;20116;-94
2022/06/05 08:29:37;;;;;;;7.50;3.65;;;17.70;99.90;;;;;;6382610;22;20009;-94
2022/06/05 08:32:04;;;;;;;7.32;3.97;;;17.80;99.90;;;;;;6382293;22;20446;-94
2022/06/05 08:34:30;;;;;;;7.78;3.67;;;17.90;99.90;;;;;;6382313;22;20016;-91
2022/06/05 08:43:09;;;;;;;7.93;3.58;;;18.10;99.90;;;;;;6282182;22;20416;-92
2022/06/05 08:45:44;;;;;;;6.97;3.75;;;18.20;99.90;;;;;;6352530;22;20014;-96
2022/06/05 08:48:17;;;;;;;6.75;3.88;;;18.30;99.90;;;;;;6383526;22;20052;-94
2022/06/05 08:50:47;;;;;;;8.07;3.90;;;18.40;99.90;;;;;;6380716;22;20014;-94
2022/06/05 08:53:48;;;;;;;6.57;3.45;;;18.40;99.90;;;;;;6380693;22;20014;-93
2022/06/05 08:56:28;;;;;;;6.80;3.47;;;18.50;99.90;;;;;;6356533;22;20013;-94
2022/06/05 08:59:01;;;;;;;6.85;3.70;;;18.50;99.90;;;;;;6381821;22;20049;-93
2022/06/05 09:02:11;;;;;;;6.68;3.53;;;18.60;99.90;;;;;;6382016;22;20142;-95
2022/06/05 09:04:46;;;;;;;6.80;3.30;;;18.60;99.90;;;;;;6381098;22;20017;-94
2022/06/05 09:07:40;;;;;;;5.78;3.58;;;18.70;99.90;;;;;;6382059;22;20041;-95
2022/06/05 09:10:08;;;;;;;5.45;3.20;;;18.80;99.90;;;;;;6381432;22;20013;-93
2022/06/05 09:13:15;;;;;;;6.25;3.67;;;18.80;99.90;;;;;;6381756;22;20010;-93
2022/06/05 09:16:02;;;;;;;7.28;3.95;;;18.90;99.90;;;;;;6299357;22;20018;-93
2022/06/05 09:18:36;;;;;;;5.85;3.17;;;18.90;99.90;;;;;;6381199;22;20017;-94
2022/06/05 09:21:23;;;;;;;5.80;3.42;;;18.90;99.90;;;;;;6381786;22;20010;-94
2022/06/05 09:24:10;;;;;;;6.60;3.50;;;18.90;99.90;;;;;;6381924;22;20379;-94
2022/06/05 09:27:00;;;;;;;6.15;3.25;;;18.90;99.90;;;;;;6383557;22;20013;-95
2022/06/05 09:30:08;;;;;;;5.82;2.97;;;18.90;99.90;;;;;;6399838;22;19997;-94
2022/06/05 09:33:18;;;;;;;8.25;3.78;;;19.00;99.90;;;;;;6241028;22;20051;-94
2022/06/05 09:35:51;;;;;;;6.15;3.42;;;19.00;99.90;;;;;;6223873;22;20568;-94
2022/06/05 09:38:50;;;;;;;6.00;3.35;;;19.00;99.90;;;;;;6354461;22;20398;-94
2022/06/05 09:41:33;;;;;;;6.68;3.97;;;19.10;99.90;;;;;;6381636;22;20058;-92
2022/06/05 09:44:18;;;;;;;6.38;3.65;;;19.10;99.90;;;;;;6381768;22;20021;-96
2022/06/05 09:46:59;;;;;;;6.28;3.42;;;19.20;99.90;;;;;;6381720;22;20013;-94
2022/06/05 09:54:57;;;;;;;;;;;;;;;;;;;;;
2022/06/05 10:00:43;;;;;;;6.18;3.42;;;19.60;99.90;;;;;;6272986;22;20115;-95
2022/06/05 10:03:21;;;;;;;6.70;3.42;;;19.70;99.90;;;;;;6247046;22;20012;-95
2022/06/05 10:06:53;;;;;;;5.63;3.35;;;19.90;99.90;;;;;;6246614;22;20027;-94
2022/06/05 10:09:26;;;;;;;6.93;3.38;;;19.90;99.90;;;;;;6259667;22;20056;-96
2022/06/05 10:30:01;;;;;;;6.40;3.33;;;20.30;99.90;;;;;;6242278;23;20028;-94
2022/06/05 10:32:43;;;;;;;5.28;3.05;;;20.30;99.90;;;;;;6215725;23;20073;-95
2022/06/05 10:35:51;;;;;;;5.00;2.80;;;20.40;99.90;;;;;;6216462;23;20031;-94
2022/06/05 10:38:29;;;;;;;;;;;20.50;99.90;;;;;;6131525;23;20044;-94
2022/06/05 10:41:14;;;;;;;5.20;3.22;;;20.60;99.90;;;;;;6212090;23;19951;-93
2022/06/05 10:43:40;;;;;;;5.25;3.08;;;20.70;99.90;;;;;;6241990;23;20030;-94
2022/06/05 10:46:18;;;;;;;6.82;3.53;;;20.80;99.90;;;;;;6215951;23;20020;-95
2022/06/05 10:49:00;;;;;;;5.28;3.50;;;20.80;99.90;;;;;;6216034;23;20012;-94
2022/06/05 10:51:41;;;;;;;4.90;2.78;;;20.90;99.90;;;;;;6216151;23;20471;-92
2022/06/05 10:54:22;;;;;;;4.72;3.10;;;20.90;99.90;;;;;;6216957;23;20459;-96
2022/06/05 10:57:12;;;;;;;6.85;3.17;;;20.90;99.90;;;;;;6195020;23;20016;-94
2022/06/05 10:59:59;;;;;;;7.32;4.13;;;21.00;99.90;;;;;;6217685;23;20350;-91
2022/06/05 11:23:18;;;;;;;5.45;3.10;;;21.00;99.90;;;;;;6241933;23;20065;-96
2022/06/05 11:25:56;;;;;;;5.85;3.38;;;21.00;99.90;;;;;;6215376;23;20027;-93
2022/06/05 11:28:28;;;;;;;5.28;2.75;;;21.10;99.90;;;;;;6216345;23;20020;-94
2022/06/05 11:31:18;;;;;;;5.28;3.20;;;21.10;99.90;;;;;;6242884;22;20024;-92
2022/06/05 11:34:04;;;;;;;4.07;2.40;;;21.20;99.90;;;;;;6224792;23;20099;-95
2022/06/05 11:36:42;;;;;;;6.13;3.20;;;21.30;99.90;;;;;;6218152;23;20020;-91
2022/06/05 11:39:30;;;;;;;6.65;2.65;;;21.40;99.90;;;;;;6242101;23;20016;-92
2022/06/05 11:42:11;;;;;;;5.80;3.25;;;21.40;99.90;;;;;;6219270;23;20024;-95
2022/06/05 11:45:01;;;;;;;5.47;3.15;;;21.40;99.90;;;;;;6217488;23;20063;-94
2022/06/05 11:47:50;;;;;;;4.40;2.70;;;21.40;99.90;;;;;;6219891;23;20020;-91
2022/06/05 11:50:57;;;;;;;5.05;3.30;;;21.50;99.90;;;;;;6223863;23;20073;-95
2022/06/05 11:53:31;;;;;;;7.50;3.20;;;21.50;99.90;;;;;;6247216;23;20004;-96
2022/06/05 11:56:24;;;;;;;5.18;2.88;;;21.50;99.90;;;;;;6221855;23;20020;-93
2022/06/05 11:59:07;;;;;;;4.78;2.83;;;21.50;99.90;;;;;;6244682;23;20051;-96
2022/06/05 13:20:20;;;;;;;4.10;2.78;;;21.70;99.90;;;;;;6242624;23;20048;-91
2022/06/05 13:23:01;;;;;;;4.80;2.83;;;21.70;99.90;;;;;;6192365;22;20020;-94
2022/06/05 13:25:59;;;;;;;4.70;2.47;;;21.70;99.90;;;;;;6191651;23;20016;-94
2022/06/05 13:28:42;;;;;;;4.38;2.63;;;21.60;99.90;;;;;;6191526;23;20050;-92
2022/06/05 13:31:28;;;;;;;5.25;2.92;;;21.60;99.90;;;;;;6193457;23;20051;-96
2022/06/05 13:34:09;;;;;;;4.32;2.65;;;21.60;99.90;;;;;;6218317;22;20023;-93
2022/06/05 13:37:11;;;;;;;6.05;2.75;;;21.70;99.90;;;;;;6201314;23;20017;-93
2022/06/05 13:39:53;;;;;;;3.80;2.67;;;21.70;99.90;;;;;;6192682;22;20510;-96
2022/06/05 13:42:22;;;;;;;4.10;2.60;;;21.70;99.90;;;;;;6193809;23;20441;-93
2022/06/05 13:45:00;;;;;;;4.22;2.72;;;21.70;99.90;;;;;;6193021;22;20016;-94
2022/06/05 13:47:41;;;;;;;4.25;2.63;;;21.70;99.90;;;;;;6192250;23;20047;-93
2022/06/05 13:50:25;;;;;;;4.40;2.65;;;21.70;99.90;;;;;;6193035;23;20016;-95
2022/06/05 13:56:31;;;;;;;5.25;2.97;;;21.80;99.90;;;;;;6213356;23;20085;-95
2022/06/05 14:01:36;;;;;;;4.30;2.53;;;21.90;99.90;;;;;;6239912;22;20464;-94
2022/06/05 14:04:16;;;;;;;5.55;2.58;;;22.00;99.90;;;;;;6194437;23;20027;-92
2022/06/05 14:06:51;;;;;;;3.97;2.40;;;22.00;99.90;;;;;;6193725;23;20016;-94
2022/06/05 14:09:32;;;;;;;4.38;2.63;;;22.00;99.90;;;;;;6193618;23;20025;-93
2022/06/05 14:22:30;;;;;;;3.67;2.22;;;22.10;99.90;;;;;;6404936;22;20022;-94
2022/06/05 14:30:42;;;;;;;4.22;2.50;;;22.10;99.90;;;;;;6249393;22;20019;-96
2022/06/05 14:33:58;;;;;;;4.90;2.47;;;22.10;99.90;;;;;;6247615;22;20539;-96
2022/06/05 14:37:07;;;;;;;6.13;2.90;;;22.10;99.90;;;;;;6247812;22;20058;-94
2022/06/05 14:39:39;;;;;;;4.03;2.45;;;22.10;99.90;;;;;;6247538;22;20121;-92
2022/06/05 14:42:16;;;;;;;4.10;2.63;;;22.00;99.90;;;;;;6248475;22;20035;-92
2022/06/05 14:44:54;;;;;;;4.20;2.65;;;22.00;99.90;;;;;;6248660;22;20018;-96
2022/06/05 15:03:49;;;;;;;5.30;2.50;;;21.90;99.90;;;;;;6274751;22;20016;-92
2022/06/05 15:06:19;;;;;;;4.43;2.47;;;21.80;99.90;;;;;;6246139;22;20023;-92
2022/06/05 15:09:17;;;;;;;4.60;2.45;;;21.80;99.90;;;;;;6247043;22;20094;-92
2022/06/05 15:12:01;;;;;;;3.92;2.40;;;21.70;99.90;;;;;;6248900;22;20385;-92
2022/06/05 15:15:10;;;;;;;4.82;2.67;;;21.70;99.90;;;;;;6246163;22;20437;-93
2022/06/05 15:18:01;;;;;;;4.15;2.15;;;21.70;99.90;;;;;;6255723;22;20015;-92
2022/06/05 15:20:42;;;;;;;4.18;2.50;;;21.60;99.90;;;;;;6254710;22;20145;-91
2022/06/05 15:23:10;;;;;;;3.95;2.42;;;21.60;99.90;;;;;;6247991;22;20098;-92
2022/06/05 15:25:39;;;;;;;5.72;2.60;;;21.60;99.90;;;;;;6251287;22;20103;-94
2022/06/05 15:28:15;;;;;;;4.63;2.72;;;21.60;99.90;;;;;;6253728;22;20018;-92
2022/06/05 15:31:07;;;;;;;4.95;2.78;;;21.60;99.90;;;;;;6276760;22;20020;-93
2022/06/05 15:34:29;;;;;;;4.70;2.70;;;21.60;99.90;;;;;;6248585;22;20024;-93
2022/06/05 15:37:37;;;;;;;4.20;2.72;;;21.60;99.90;;;;;;6287404;22;20063;-93
2022/06/05 15:40:34;;;;;;;4.18;2.35;;;21.60;99.90;;;;;;6266964;22;20027;-91
2022/06/05 15:50:59;;;;;;;4.32;2.50;;;21.70;99.90;;;;;;6277884;22;20027;-90
2022/06/05 15:53:55;;;;;;;4.65;2.58;;;21.60;99.90;;;;;;6259579;22;20026;-90
2022/06/05 15:56:47;;;;;;;6.30;2.70;;;21.70;99.90;;;;;;6236559;22;20021;-88
2022/06/05 15:59:25;;;;;;;4.10;2.38;;;21.60;99.90;;;;;;6310803;22;20024;-90
2022/06/05 16:02:14;;;;;;;4.32;2.47;;;21.70;99.90;;;;;;6291714;22;20091;-91
2022/06/05 16:04:41;;;;;;;5.30;2.50;;;21.60;99.90;;;;;;6317823;22;20062;-90
2022/06/05 16:07:15;;;;;;;;;;;21.60;99.90;;;;;;6292173;22;20017;-93
2022/06/05 16:10:04;;;;;;;5.65;2.67;;;21.50;99.90;;;;;;6318189;22;19912;-92
2022/06/05 16:12:37;;;;;;;4.60;2.63;;;21.50;99.90;;;;;;6299273;22;20016;-89
2022/06/05 16:15:34;;;;;;;4.82;2.70;;;21.40;99.90;;;;;;6319966;22;20017;-92
2022/06/05 16:18:12;;;;;;;5.60;2.90;;;21.40;99.90;;;;;;6292562;22;20036;-91
2022/06/05 16:21:05;;;;;;;4.63;2.58;;;21.30;99.90;;;;;;6291149;22;20020;-89
2022/06/05 16:23:44;;;;;;;4.95;2.85;;;21.20;99.90;;;;;;6290248;22;20097;-92
2022/06/05 16:26:37;;;;;;;4.32;2.78;;;21.10;99.90;;;;;;6291230;22;20020;-92
2022/06/05 16:29:08;;;;;;;3.67;2.40;;;21.00;99.90;;;;;;6291303;22;20020;-91
2022/06/05 16:31:49;;;;;;;4.75;2.50;;;21.00;99.90;;;;;;6291168;22;20023;-92
2022/06/05 16:37:53;;;;;;;5.22;2.80;;;20.80;99.90;;;;;;6295057;22;20096;-91
2022/06/05 16:40:33;;;;;;;5.13;2.58;;;20.70;99.90;;;;;;6321632;22;20020;-92
2022/06/05 16:43:22;;;;;;;5.15;3.03;;;20.60;99.90;;;;;;6294229;22;20027;-91
2022/06/05 16:46:00;;;;;;;4.15;2.88;;;20.50;99.90;;;;;;6319848;22;20074;-91
2022/06/05 16:48:29;;;;;;;4.05;2.38;;;20.50;99.90;;;;;;6293338;22;20388;-91
2022/06/05 16:51:11;;;;;;;4.28;2.65;;;20.40;99.90;;;;;;6292737;22;20454;-95
2022/06/05 16:53:43;;;;;;;5.53;3.00;;;20.40;99.90;;;;;;6319049;22;20349;-91